Time;durP1;ratioP1;P1;durP2;ratioP2;P2;SDS_P1;SDS_P2;PMS_P1;PMS_P2;Temp;Humidity;BMP_temperature;BMP_pressure;BME280_temperature;BME280_humidity;BME280_pressure;Samples;Min_cycle;Max_cycle;Signal;HPM_P1;HPM_P2
2021/12/16 00:08:07;;;;;;;30.65;13.15;;;;;;;8.11;100.00;103189.69;5033306;28;20038;-50
2021/12/16 00:10:44;;;;;;;28.48;12.38;;;;;;;8.36;100.00;103236.44;5031760;28;20041;-48
2021/12/16 00:35:00;;;;;;;30.60;13.05;;;;;;;8.22;100.00;103240.56;5031528;28;20049;-49
2021/12/16 00:37:26;;;;;;;38.75;13.55;;;;;;;7.85;100.00;103185.78;5046888;28;20029;-49
2021/12/16 00:39:52;;;;;;;41.35;14.38;;;;;;;8.19;100.00;103251.00;5030176;28;20473;-51
2021/12/16 00:42:33;;;;;;;40.50;13.55;;;;;;;7.98;100.00;103223.53;5030233;28;20045;-50
2021/12/16 00:50:03;;;;;;;35.03;14.63;;;;;;;8.15;100.00;103251.81;5031534;28;20044;-50
2021/12/16 00:57:45;;;;;;;39.35;14.68;;;;;;;8.03;100.00;103243.75;5036004;28;20137;-51
2021/12/16 01:00:14;;;;;;;33.40;14.88;;;;;;;7.93;100.00;103237.50;5035053;28;20052;-53
2021/12/16 01:57:15;;;;;;;38.88;15.95;;;;;;;5.99;100.00;103265.69;5053854;28;20040;-49
2021/12/16 01:59:44;;;;;;;33.67;14.88;;;;;;;6.23;100.00;103324.72;5037345;28;20115;-49
2021/12/16 02:02:37;;;;;;;41.65;16.48;;;;;;;6.11;100.00;103306.09;5053814;28;20029;-51
2021/12/16 02:10:38;;;;;;;38.67;16.65;;;;;;;5.98;100.00;103342.38;5052416;28;20120;-52
2021/12/16 02:35:13;;;;;;;41.17;18.15;;;;;;;5.62;100.00;103356.19;5053037;28;20037;-50
2021/12/16 02:37:45;;;;;;;;;;;;;;;5.56;100.00;103348.16;5053685;28;20593;-50
2021/12/16 02:40:12;;;;;;;38.05;16.90;;;;;;;5.51;100.00;103352.38;5052909;28;20039;-52
2021/12/16 02:42:50;;;;;;;36.92;17.30;;;;;;;5.38;100.00;103346.75;5052960;28;20485;-53
2021/12/16 02:50:44;;;;;;;40.05;17.85;;;;;;;5.31;100.00;103355.25;5053069;28;20067;-54
2021/12/16 02:53:09;;;;;;;42.42;18.27;;;;;;;5.19;100.00;103354.91;5051637;28;20032;-51
2021/12/16 02:55:35;;;;;;;36.30;18.73;;;;;;;5.25;100.00;103357.69;5051368;28;20521;-53
2021/12/16 02:58:00;;;;;;;37.28;19.42;;;;;;;4.81;100.00;103278.06;5052448;28;20044;-51
2021/12/16 03:00:32;;;;;;;35.20;18.50;;;;;;;5.22;100.00;103350.66;5052800;28;20040;-52
2021/12/16 03:02:58;;;;;;;38.03;17.85;;;;;;;4.67;100.00;103258.50;5052113;28;20415;-53
2021/12/16 03:05:23;;;;;;;37.13;18.75;;;;;;;4.80;100.00;103284.13;5052411;28;20032;-54
2021/12/16 03:07:50;;;;;;;35.78;18.15;;;;;;;5.07;100.00;103342.38;5034687;28;20040;-52
2021/12/16 03:13:06;;;;;;;44.72;19.23;;;;;;;5.04;100.00;103356.22;5052279;28;20115;-53
2021/12/16 03:20:55;;;;;;;42.28;20.30;;;;;;;4.97;100.00;103349.03;5052464;28;20491;-53
2021/12/16 03:34:14;;;;;;;42.13;19.85;;;;;;;4.45;100.00;103277.81;5051870;28;20037;-51
2021/12/16 03:36:47;;;;;;;39.65;19.50;;;;;;;4.96;100.00;103364.66;5050679;28;20045;-52
2021/12/16 03:39:14;;;;;;;38.25;18.50;;;;;;;4.78;100.00;103320.63;5036451;28;20111;-53
2021/12/16 03:41:39;;;;;;;44.90;19.40;;;;;;;5.07;100.00;103365.88;5051070;28;20032;-52
2021/12/16 03:44:10;;;;;;;43.63;19.92;;;;;;;5.16;100.00;103360.03;5033933;28;20373;-54
2021/12/16 03:46:39;;;;;;;36.87;18.83;;;;;;;5.19;100.00;103358.41;5052359;28;20486;-52
2021/12/16 03:49:14;;;;;;;46.30;19.92;;;;;;;4.98;100.00;103327.31;5052294;28;20295;-50
2021/12/16 03:52:01;;;;;;;35.53;19.23;;;;;;;5.16;100.00;103365.25;5051947;28;20021;-49
2021/12/16 03:54:31;;;;;;;40.08;19.15;;;;;;;4.71;100.00;103289.94;5051818;28;20036;-53
2021/12/16 03:56:58;;;;;;;38.50;19.80;;;;;;;4.69;100.00;103277.69;5052037;28;20037;-54
2021/12/16 03:59:30;;;;;;;46.55;19.50;;;;;;;5.05;100.00;103347.53;5051617;28;20041;-51
2021/12/16 04:01:58;;;;;;;42.78;19.55;;;;;;;4.90;100.00;103334.00;5051694;28;20070;-53
2021/12/16 04:04:23;;;;;;;44.25;18.75;;;;;;;4.89;100.00;103354.84;5051702;28;20037;-52
2021/12/16 04:06:49;;;;;;;42.15;19.70;;;;;;;4.84;100.00;103353.84;5051618;28;20036;-50
2021/12/16 04:09:15;;;;;;;31.13;18.13;;;;;;;4.80;100.00;103347.63;5051571;28;20491;-56
2021/12/16 04:11:47;;;;;;;38.42;20.05;;;;;;;4.86;100.00;103373.03;5050054;28;20060;-53
2021/12/16 04:14:14;;;;;;;42.25;20.20;;;;;;;4.79;100.00;103347.56;5051418;28;20464;-48
2021/12/16 04:16:47;;;;;;;40.45;20.52;;;;;;;4.91;100.00;103367.09;5051551;28;20033;-53
2021/12/16 04:19:17;;;;;;;38.22;19.08;;;;;;;4.85;100.00;103343.44;5018140;28;20029;-52
2021/12/16 04:21:47;;;;;;;38.60;20.20;;;;;;;4.58;100.00;103297.34;5051321;28;20048;-54
2021/12/16 04:24:13;;;;;;;44.10;19.98;;;;;;;4.97;100.00;103382.97;5051548;28;20021;-53
2021/12/16 04:26:41;;;;;;;41.60;19.98;;;;;;;4.66;100.00;103301.09;5052258;28;20051;-51
2021/12/16 04:29:06;;;;;;;39.70;20.15;;;;;;;5.03;100.00;103385.75;5038949;28;20071;-54
2021/12/16 04:31:33;;;;;;;42.97;21.02;;;;;;;5.08;100.00;103385.88;5055312;28;20053;-55
2021/12/16 04:34:00;;;;;;;39.58;19.92;;;;;;;4.76;100.00;103314.44;5055459;28;20502;-52
2021/12/16 04:36:25;;;;;;;38.90;20.48;;;;;;;5.10;100.00;103355.50;5055372;28;20086;-53
2021/12/16 04:38:52;;;;;;;37.28;19.38;;;;;;;5.02;100.00;103343.97;5055349;28;20041;-51
2021/12/16 04:41:18;;;;;;;38.05;19.10;;;;;;;5.12;100.00;103359.03;5037328;28;20082;-48
2021/12/16 04:43:47;;;;;;;42.35;19.80;;;;;;;4.81;100.00;103314.59;5037234;28;20068;-51
2021/12/16 04:46:17;;;;;;;42.35;20.23;;;;;;;4.68;100.00;103297.69;5055513;28;20487;-51
2021/12/16 04:48:45;;;;;;;38.00;18.75;;;;;;;5.02;100.00;103378.75;5053893;28;20029;-49
2021/12/16 04:51:10;;;;;;;39.25;19.13;;;;;;;4.53;100.00;103281.53;5053951;28;20028;-53
2021/12/16 04:53:36;;;;;;;40.97;19.98;;;;;;;4.97;100.00;103369.03;5054975;28;20074;-49
2021/12/16 04:56:03;;;;;;;40.38;19.67;;;;;;;4.88;100.00;103355.69;5055275;28;20036;-50
2021/12/16 04:58:29;;;;;;;42.28;19.63;;;;;;;4.55;100.00;103301.63;5055553;28;20176;-52
2021/12/16 05:00:55;;;;;;;38.67;19.50;;;;;;;4.97;100.00;103369.03;5053679;28;20039;-54
2021/12/16 05:03:21;;;;;;;32.42;18.73;;;;;;;4.93;100.00;103354.97;5037281;28;20028;-50
2021/12/16 05:05:47;;;;;;;39.58;19.60;;;;;;;4.74;100.00;103328.28;5055027;28;20048;-50
2021/12/16 05:08:13;;;;;;;39.35;20.08;;;;;;;4.92;100.00;103362.78;5054853;28;20033;-50
2021/12/16 05:10:38;;;;;;;37.40;20.10;;;;;;;5.02;100.00;103389.19;5054769;28;20033;-51
2021/12/16 05:13:05;;;;;;;42.28;22.08;;;;;;;4.75;100.00;103344.00;5054601;28;20445;-52
2021/12/16 05:15:35;;;;;;;31.70;19.25;;;;;;;4.96;100.00;103391.63;5054595;28;20403;-54
2021/12/16 05:18:04;;;;;;;49.33;20.67;;;;;;;4.62;100.00;103327.91;5054435;28;20071;-52
2021/12/16 05:20:39;;;;;;;37.17;20.52;;;;;;;4.97;100.00;103387.28;5054594;28;20033;-54
2021/12/16 05:28:27;;;;;;;39.38;20.58;;;;;;;4.88;100.00;103395.72;5054921;28;20045;-49
2021/12/16 05:30:54;;;;;;;43.63;20.92;;;;;;;4.82;100.00;103397.25;5054372;28;20069;-51
2021/12/16 05:33:21;;;;;;;41.38;19.77;;;;;;;4.83;100.00;103407.75;5036627;28;20389;-51
2021/12/16 05:35:47;;;;;;;38.35;19.90;;;;;;;4.72;100.00;103398.69;5054600;28;20040;-53
2021/12/16 05:38:14;;;;;;;31.60;19.02;;;;;;;4.70;100.00;103422.97;5053167;28;20112;-50
2021/12/16 05:40:39;;;;;;;37.83;20.65;;;;;;;4.64;100.00;103412.34;5053920;28;20247;-49
2021/12/16 05:43:08;;;;;;;47.30;21.52;;;;;;;4.46;100.00;103394.34;5036124;28;20029;-53
2021/12/16 05:45:35;;;;;;;40.25;20.25;;;;;;;4.52;100.00;103407.59;5053897;28;20340;-48
2021/12/16 05:48:02;;;;;;;34.83;19.77;;;;;;;4.38;100.00;103416.66;5053960;28;20094;-51
2021/12/16 05:50:31;;;;;;;36.85;20.10;;;;;;;4.23;100.00;103370.09;5054037;28;20052;-54
2021/12/16 05:52:57;;;;;;;34.22;19.98;;;;;;;4.32;100.00;103399.09;5035976;28;20032;-55
2021/12/16 05:55:22;;;;;;;44.92;21.05;;;;;;;4.13;100.00;103372.34;5053835;28;20163;-48
2021/12/16 05:57:49;;;;;;;40.13;20.25;;;;;;;4.44;100.00;103432.50;5052378;28;20458;-49
2021/12/16 06:00:24;;;;;;;39.47;19.20;;;;;;;4.32;100.00;103417.34;5054041;28;20124;-50
2021/12/16 06:02:50;;;;;;;42.45;20.55;;;;;;;4.07;100.00;103374.75;5053620;28;20107;-50
2021/12/16 06:05:16;;;;;;;39.10;19.73;;;;;;;3.88;100.00;103353.25;5052600;28;20179;-51
2021/12/16 06:07:41;;;;;;;35.10;20.55;;;;;;;4.20;100.00;103414.34;5052366;28;20491;-54
2021/12/16 06:10:16;;;;;;;38.42;21.20;;;;;;;4.21;100.00;103409.97;5053337;28;20120;-52
2021/12/16 06:12:41;;;;;;;36.85;19.85;;;;;;;4.19;100.00;103424.69;5037021;28;20061;-51
2021/12/16 06:15:21;;;;;;;41.30;20.13;;;;;;;4.14;100.00;103426.25;5035717;28;20091;-53
2021/12/16 06:28:30;;;;;;;42.20;21.55;;;;;;;3.61;100.00;103387.88;5053742;28;20238;-50
2021/12/16 06:30:56;;;;;;;42.42;22.20;;;;;;;3.93;100.00;103442.91;5053275;28;20041;-52
2021/12/16 06:33:25;;;;;;;43.22;22.08;;;;;;;3.24;100.00;103330.97;5053076;28;20029;-51
2021/12/16 06:35:52;;;;;;;45.53;22.20;;;;;;;3.54;100.00;103393.66;5053380;28;20040;-53
2021/12/16 06:38:19;;;;;;;46.55;23.33;;;;;;;3.85;100.00;103456.50;5052934;28;20029;-49
2021/12/16 06:40:44;;;;;;;39.35;22.23;;;;;;;3.75;100.00;103451.78;5052687;28;20148;-51
2021/12/16 06:43:12;;;;;;;40.47;22.15;;;;;;;3.74;100.00;103457.81;5050867;28;20124;-53
2021/12/16 06:45:41;;;;;;;43.50;23.83;;;;;;;3.68;100.00;103447.16;5052079;28;20491;-53
2021/12/16 06:48:14;;;;;;;51.15;24.33;;;;;;;3.79;100.00;103467.59;5034360;28;20090;-54
2021/12/16 06:53:23;;;;;;;39.03;21.58;;;;;;;3.69;100.00;103478.47;5033564;28;20036;-52
2021/12/16 06:56:01;;;;;;;44.72;24.35;;;;;;;3.40;100.00;103430.50;5033778;28;20476;-50
2021/12/16 06:58:46;;;;;;;43.42;23.90;;;;;;;3.02;100.00;103343.97;5052412;28;20537;-49
2021/12/16 07:01:31;;;;;;;45.38;24.00;;;;;;;3.77;100.00;103492.66;5036866;28;20033;-51
2021/12/16 07:03:57;;;;;;;41.05;22.90;;;;;;;3.40;100.00;103427.00;5052346;28;20036;-49
2021/12/16 07:06:29;;;;;;;45.85;24.33;;;;;;;3.53;100.00;103465.72;5051130;28;20055;-50
2021/12/16 07:08:59;;;;;;;46.78;25.45;;;;;;;3.74;100.00;103500.38;5034631;28;20039;-53
2021/12/16 07:11:25;;;;;;;49.60;26.52;;;;;;;3.44;100.00;103443.66;5052492;28;20029;-55
2021/12/16 07:13:59;;;;;;;52.13;27.50;;;;;;;3.45;100.00;103433.28;5052412;28;20040;-53
2021/12/16 07:16:28;;;;;;;47.85;25.80;;;;;;;3.81;100.00;103504.09;5052512;28;20127;-55
2021/12/16 07:18:54;;;;;;;46.35;26.58;;;;;;;3.77;100.00;103491.78;5052368;28;20033;-52
2021/12/16 07:21:20;;;;;;;41.22;24.67;;;;;;;3.40;100.00;103430.50;5034609;28;20029;-52
2021/12/16 07:23:45;;;;;;;48.75;27.50;;;;;;;3.78;100.00;103504.88;5052323;28;20427;-52
2021/12/16 07:26:10;;;;;;;50.28;27.00;;;;;;;3.73;100.00;103511.66;5034423;28;20064;-52
2021/12/16 07:28:36;;;;;;;56.15;27.95;;;;;;;3.46;100.00;103470.63;5052146;28;20053;-49
2021/12/16 07:31:02;;;;;;;52.70;27.73;;;;;;;3.73;100.00;103514.25;5052053;28;20037;-49
2021/12/16 07:33:27;;;;;;;53.78;29.17;;;;;;;3.36;100.00;103445.94;5034124;28;20039;-49
2021/12/16 07:35:53;;;;;;;50.58;28.23;;;;;;;3.66;100.00;103525.25;5034219;28;20107;-51
2021/12/16 07:38:20;;;;;;;57.15;29.98;;;;;;;3.30;100.00;103471.72;5034260;28;20120;-49
2021/12/16 07:40:48;;;;;;;50.65;28.90;;;;;;;3.42;100.00;103503.47;5050643;28;20095;-49
2021/12/16 07:44:14;;;;;;;54.28;29.63;;;;;;;3.37;100.00;103490.28;5052007;28;20057;-51
2021/12/16 07:46:10;;;;;;;49.20;29.63;;;;;;;3.58;100.00;103539.69;5046751;28;20452;-52
2021/12/16 07:48:35;;;;;;;59.42;29.88;;;;;;;3.62;100.00;103562.41;5051901;28;20025;-50
2021/12/16 07:51:03;;;;;;;50.10;28.05;;;;;;;3.61;100.00;103565.88;5034050;28;20045;-50
2021/12/16 07:53:28;;;;;;;47.70;28.35;;;;;;;3.56;100.00;103554.34;5033978;28;20060;-51
2021/12/16 07:55:54;;;;;;;55.05;29.23;;;;;;;3.65;100.00;103559.94;5050494;28;20056;-49
2021/12/16 07:58:20;;;;;;;54.30;29.40;;;;;;;3.36;100.00;103516.22;5051633;28;20041;-51
2021/12/16 08:00:46;;;;;;;53.25;29.08;;;;;;;3.65;100.00;103566.88;5033694;28;20556;-52
2021/12/16 08:03:12;;;;;;;54.97;28.23;;;;;;;3.65;100.00;103561.66;5051615;28;20104;-49
2021/12/16 08:05:44;;;;;;;56.05;30.65;;;;;;;3.65;100.00;103566.88;5051822;28;20060;-50
2021/12/16 08:08:10;;;;;;;49.83;28.92;;;;;;;3.32;100.00;103510.03;5051751;28;20035;-52
2021/12/16 08:10:36;;;;;;;47.45;28.42;;;;;;;3.59;100.00;103556.22;5051648;28;20112;-51
2021/12/16 08:13:03;;;;;;;53.58;29.50;;;;;;;3.58;100.00;103541.41;5051482;28;20108;-50
2021/12/16 08:15:28;;;;;;;54.70;28.60;;;;;;;3.72;100.00;103576.69;5051475;28;20473;-49
2021/12/16 08:17:55;;;;;;;52.88;28.85;;;;;;;3.74;100.00;103578.53;5050273;28;20071;-52
2021/12/16 08:20:22;;;;;;;51.35;28.90;;;;;;;3.67;100.00;103566.09;5033786;28;20395;-51
2021/12/16 08:22:50;;;;;;;51.55;29.52;;;;;;;3.64;100.00;103541.66;5046954;28;20535;-50
2021/12/16 08:25:19;;;;;;;50.05;29.60;;;;;;;3.51;100.00;103515.94;5051134;28;20044;-50
2021/12/16 08:27:46;;;;;;;60.50;30.45;;;;;;;3.70;100.00;103571.44;5016925;28;20043;-50
2021/12/16 08:30:14;;;;;;;53.22;30.65;;;;;;;3.71;100.00;103565.38;5033385;28;20041;-48
2021/12/16 08:32:39;;;;;;;55.67;29.88;;;;;;;3.88;100.00;103584.28;5051292;28;20037;-49
2021/12/16 08:35:07;;;;;;;51.03;30.55;;;;;;;3.84;100.00;103583.28;5051344;28;20396;-50
2021/12/16 08:37:33;;;;;;;50.78;28.80;;;;;;;3.63;100.00;103545.97;5051412;28;20044;-49
2021/12/16 08:39:58;;;;;;;58.70;29.42;;;;;;;3.65;100.00;103546.03;5051145;28;20057;-50
2021/12/16 08:42:24;;;;;;;59.95;32.08;;;;;;;3.73;100.00;103532.47;5051333;28;20421;-50
2021/12/16 08:44:49;;;;;;;51.85;31.35;;;;;;;3.80;100.00;103539.69;5033500;28;20566;-49
2021/12/16 08:47:17;;;;;;;53.60;29.83;;;;;;;4.15;100.00;103620.91;5051180;28;20067;-50
2021/12/16 08:49:42;;;;;;;56.60;31.52;;;;;;;3.82;100.00;103566.66;5049851;28;20036;-50
2021/12/16 08:52:16;;;;;;;61.75;32.88;;;;;;;3.78;100.00;103543.97;5050725;28;20473;-52
2021/12/16 08:54:43;;;;;;;61.20;32.72;;;;;;;4.26;100.00;103630.91;5049584;28;20025;-50
2021/12/16 08:57:08;;;;;;;62.10;31.67;;;;;;;4.31;100.00;103629.41;5051071;28;20538;-52
2021/12/16 08:59:34;;;;;;;61.40;32.63;;;;;;;4.36;100.00;103625.22;5051396;28;20041;-50
2021/12/16 09:02:01;;;;;;;60.60;33.42;;;;;;;3.91;100.00;103543.56;5051399;28;20056;-51
2021/12/16 09:04:27;;;;;;;56.70;33.65;;;;;;;4.30;100.00;103618.88;5051281;28;20365;-50
2021/12/16 09:06:56;;;;;;;62.10;33.95;;;;;;;4.41;100.00;103630.59;5033292;28;20420;-51
2021/12/16 09:09:21;;;;;;;62.80;32.03;;;;;;;4.06;100.00;103565.88;5051061;28;20102;-51
2021/12/16 09:14:43;;;;;;;58.25;34.28;;;;;;;4.51;100.00;103631.03;5039151;28;20064;-54
2021/12/16 09:17:13;;;;;;;63.10;33.55;;;;;;;4.27;100.00;103567.53;5036382;28;20087;-52
2021/12/16 09:19:40;;;;;;;67.53;34.28;;;;;;;4.38;100.00;103586.16;5054825;28;20035;-56
2021/12/16 09:22:06;;;;;;;66.53;33.92;;;;;;;4.72;100.00;103637.84;5054893;28;20037;-54
2021/12/16 09:24:32;;;;;;;59.20;33.42;;;;;;;4.81;100.00;103633.84;5037274;28;20463;-54
2021/12/16 09:26:57;;;;;;;68.90;34.70;;;;;;;4.86;100.00;103634.00;5054517;28;20112;-53
2021/12/16 09:29:23;;;;;;;69.32;35.22;;;;;;;4.84;100.00;103623.53;5054417;28;20120;-50
2021/12/16 09:31:49;;;;;;;60.15;33.78;;;;;;;4.96;100.00;103629.16;5036244;28;20429;-51
2021/12/16 09:34:14;;;;;;;73.13;35.83;;;;;;;4.89;100.00;103602.78;5002749;28;20032;-54
2021/12/16 09:36:41;;;;;;;77.28;36.65;;;;;;;5.08;100.00;103624.34;5053506;28;20128;-51
2021/12/16 09:39:12;;;;;;;76.40;35.17;;;;;;;5.27;100.00;103632.81;5053532;28;20392;-52
2021/12/16 09:41:39;;;;;;;75.07;37.60;;;;;;;5.44;100.00;103629.03;5053471;28;20454;-53
2021/12/16 09:44:05;;;;;;;78.40;38.35;;;;;;;4.94;100.00;103520.31;5053321;28;20128;-52
2021/12/16 09:46:30;;;;;;;80.05;38.72;;;;;;;5.54;100.00;103631.13;5019249;28;20119;-52
2021/12/16 09:48:56;;;;;;;84.53;39.90;;;;;;;5.46;100.00;103596.00;5052044;28;20484;-50
2021/12/16 09:51:24;;;;;;;86.72;40.35;;;;;;;5.80;100.00;103655.47;5052634;28;20104;-51
2021/12/16 09:53:57;;;;;;;77.97;40.40;;;;;;;5.64;100.00;103589.66;5052556;28;20068;-53
2021/12/16 09:56:25;;;;;;;88.75;41.88;;;;;;;6.04;100.00;103645.84;5052418;28;20039;-51
2021/12/16 09:58:52;;;;;;;71.72;37.63;;;;;;;6.15;100.00;103654.88;5034619;28;20037;-51
2021/12/16 10:01:19;;;;;;;71.85;36.38;;;;;;;6.32;100.00;103639.69;5032510;28;20064;-52
2021/12/16 10:03:47;;;;;;;69.78;36.55;;;;;;;6.62;100.00;103661.53;5052460;28;20036;-52
2021/12/16 10:06:12;;;;;;;86.20;41.83;;;;;;;6.77;100.00;103659.34;5051754;28;20041;-53
2021/12/16 10:08:40;;;;;;;75.97;38.10;;;;;;;6.90;100.00;103661.44;5034694;28;20124;-54
2021/12/16 10:11:05;;;;;;;77.25;38.30;;;;;;;7.01;100.00;103656.47;5052765;28;20373;-51
2021/12/16 10:14:19;;;;;;;68.53;37.95;;;;;;;6.93;100.00;103637.97;5017855;28;20044;-51
2021/12/16 10:19:11;;;;;;;76.60;38.30;;;;;;;7.11;100.00;103629.69;5037529;28;20116;-52
2021/12/16 10:21:37;;;;;;;73.65;38.25;;;;;;;7.46;100.00;103681.28;5052383;28;20059;-50
2021/12/16 10:24:03;;;;;;;77.80;40.20;;;;;;;7.54;100.00;103678.84;5033891;28;20040;-53
2021/12/16 10:26:28;;;;;;;80.95;40.50;;;;;;;7.58;100.00;103670.22;5051903;28;20040;-51
2021/12/16 10:28:58;;;;;;;81.90;42.10;;;;;;;7.60;100.00;103660.66;5052091;28;20037;-50
2021/12/16 10:31:34;;;;;;;88.15;43.78;;;;;;;7.56;100.00;103649.19;5051915;28;20104;-52
2021/12/16 10:34:03;;;;;;;75.57;41.47;;;;;;;7.75;100.00;103682.88;5051636;28;20514;-51
2021/12/16 10:36:45;;;;;;;81.82;43.72;;;;;;;7.47;100.00;103611.41;5051681;28;20235;-52
2021/12/16 10:39:15;;;;;;;75.97;39.92;;;;;;;7.64;100.00;103618.84;5049207;28;20577;-50
2021/12/16 10:41:42;;;;;;;87.55;44.47;;;;;;;8.08;100.00;103685.44;5033697;28;20504;-54
2021/12/16 10:44:21;;;;;;;82.47;45.72;;;;;;;8.15;100.00;103682.06;5051784;28;20076;-54
2021/12/16 10:47:02;;;;;;;86.18;44.45;;;;;;;7.86;100.00;103622.81;5033732;28;20040;-51
2021/12/16 10:49:32;;;;;;;80.40;43.17;;;;;;;8.24;100.00;103691.88;5051478;28;20490;-53
2021/12/16 10:52:04;;;;;;;84.78;42.90;;;;;;;8.21;100.00;103670.81;5051505;28;20075;-50
2021/12/16 10:54:38;;;;;;;70.47;39.42;;;;;;;8.37;100.00;103684.38;5051356;28;20484;-51
2021/12/16 10:57:09;;;;;;;91.43;42.00;;;;;;;8.04;100.00;103606.63;5051612;28;20462;-50
2021/12/16 10:59:38;;;;;;;71.47;39.88;;;;;;;8.45;100.00;103682.78;5050998;28;20805;-52
2021/12/16 11:02:06;;;;;;;74.90;40.67;;;;;;;8.40;100.00;103671.31;5051428;28;20094;-52
2021/12/16 11:04:42;;;;;;;70.35;37.42;;;;;;;8.53;100.00;103690.81;5051250;28;20123;-50
2021/12/16 11:07:07;;;;;;;75.75;36.50;;;;;;;8.63;100.00;103684.03;5051219;28;20055;-52
2021/12/16 11:09:59;;;;;;;69.43;36.63;;;;;;;8.70;100.00;103684.19;5051318;28;20033;-51
2021/12/16 11:12:30;;;;;;;63.70;29.73;;;;;;;8.78;100.00;103666.88;5032863;28;20053;-51
2021/12/16 11:15:12;;;;;;;59.33;28.48;;;;;;;8.53;100.00;103608.53;5049867;28;20033;-53
2021/12/16 11:17:47;;;;;;;57.10;27.52;;;;;;;8.48;100.00;103592.72;5050992;28;20065;-53
2021/12/16 11:20:45;;;;;;;63.70;26.75;;;;;;;8.89;100.00;103672.31;5033050;28;20495;-52
2021/12/16 11:23:13;;;;;;;54.47;27.52;;;;;;;8.92;100.00;103670.63;5017097;28;20041;-51
2021/12/16 11:25:53;;;;;;;48.30;24.15;;;;;;;8.57;100.00;103613.03;5050974;28;20428;-54
2021/12/16 11:28:48;;;;;;;48.30;24.83;;;;;;;8.91;100.00;103663.59;5050915;28;20110;-53
2021/12/16 11:31:23;;;;;;;56.78;26.17;;;;;;;8.73;100.00;103633.44;5031924;28;20052;-52
2021/12/16 11:33:51;;;;;;;52.13;25.13;;;;;;;8.95;100.00;103667.19;5050643;28;20052;-52
2021/12/16 11:36:21;;;;;;;45.13;22.75;;;;;;;8.79;100.00;103631.84;5032062;28;20033;-52
2021/12/16 11:38:52;;;;;;;50.25;25.23;;;;;;;8.62;100.00;103611.34;5033094;28;20037;-50
2021/12/16 11:41:26;;;;;;;49.97;23.30;;;;;;;8.90;100.00;103666.22;5029220;28;20050;-53
2021/12/16 11:44:10;;;;;;;47.70;23.77;;;;;;;8.93;100.00;103658.38;5030711;28;20437;-50
2021/12/16 11:46:40;;;;;;;45.67;23.95;;;;;;;8.93;100.00;103667.13;5029427;28;20145;-52
2021/12/16 11:49:24;;;;;;;46.85;23.55;;;;;;;8.93;100.00;103648.75;5030766;28;20082;-50
2021/12/16 11:52:05;;;;;;;47.63;24.55;;;;;;;8.94;100.00;103650.53;5030690;28;20499;-52
2021/12/16 11:54:42;;;;;;;49.58;22.80;;;;;;;8.87;100.00;103632.00;5029409;28;20124;-52
2021/12/16 11:57:25;;;;;;;43.30;22.50;;;;;;;8.97;100.00;103647.94;5030165;28;20065;-53
2021/12/16 11:59:56;;;;;;;41.08;22.40;;;;;;;8.92;100.00;103651.34;5030056;28;20059;-51
2021/12/16 12:02:32;;;;;;;32.90;20.10;;;;;;;8.46;100.00;103562.94;5030566;28;20080;-50
2021/12/16 12:05:18;;;;;;;38.95;21.10;;;;;;;8.65;100.00;103593.94;5030480;28;20109;-51
2021/12/16 12:07:50;;;;;;;38.60;21.35;;;;;;;8.81;100.00;103618.75;5029309;28;20029;-50
2021/12/16 12:10:23;;;;;;;36.33;21.27;;;;;;;8.55;100.00;103575.34;5030532;28;20029;-50
2021/12/16 12:12:49;;;;;;;44.38;20.52;;;;;;;8.93;100.00;103632.13;5029393;28;20124;-51
2021/12/16 12:15:17;;;;;;;34.28;20.50;;;;;;;8.67;100.00;103583.47;5030676;28;20049;-51
2021/12/16 12:17:48;;;;;;;42.08;21.27;;;;;;;8.59;100.00;103583.31;5030620;28;20045;-52
2021/12/16 12:20:13;;;;;;;38.55;20.17;;;;;;;8.63;100.00;103579.91;5031023;28;20041;-51
2021/12/16 12:22:39;;;;;;;38.38;19.75;;;;;;;8.92;100.00;103635.59;5031069;28;20029;-51
2021/12/16 12:25:04;;;;;;;40.50;20.35;;;;;;;8.98;100.00;103636.59;5030746;28;20076;-53
2021/12/16 12:27:30;;;;;;;41.35;21.08;;;;;;;8.99;100.00;103626.94;5030751;28;20069;-52
2021/12/16 12:29:58;;;;;;;45.70;22.15;;;;;;;8.63;100.00;103558.00;5029592;28;20095;-54
2021/12/16 12:32:27;;;;;;;35.85;20.92;;;;;;;8.95;100.00;103614.63;5031100;28;20029;-55
2021/12/16 12:35:07;;;;;;;36.15;21.15;;;;;;;9.07;100.00;103627.09;5031330;28;20040;-50
2021/12/16 12:37:34;;;;;;;35.20;20.67;;;;;;;8.81;100.00;103582.88;5031753;28;20034;-50
2021/12/16 12:40:15;;;;;;;38.40;20.30;;;;;;;8.74;100.00;103569.59;5031921;28;20046;-49
2021/12/16 12:42:41;;;;;;;37.43;20.20;;;;;;;8.80;100.00;103573.22;5011103;28;20109;-55
2021/12/16 12:45:09;;;;;;;34.97;19.55;;;;;;;8.24;100.00;103479.34;5011110;28;20045;-52
2021/12/16 12:47:37;;;;;;;34.95;20.25;;;;;;;9.10;100.00;103628.06;5010624;28;20026;-52
2021/12/16 12:50:18;;;;;;;38.95;21.02;;;;;;;9.07;100.00;103622.75;5014615;28;20064;-53
2021/12/16 12:52:47;;;;;;;32.08;18.52;;;;;;;8.73;100.00;103571.31;5015138;28;20465;-50
2021/12/16 12:55:20;;;;;;;30.75;17.55;;;;;;;9.08;100.00;103635.00;5015034;28;20057;-49
2021/12/16 12:57:47;;;;;;;31.63;17.02;;;;;;;9.10;100.00;103621.91;5014804;28;20048;-50
2021/12/16 13:00:29;;;;;;;25.80;16.63;;;;;;;9.15;100.00;103642.16;5015654;28;20486;-52
2021/12/16 13:03:11;;;;;;;31.35;17.13;;;;;;;9.11;100.00;103645.56;5015560;28;20473;-49
2021/12/16 13:05:37;;;;;;;31.20;17.30;;;;;;;9.14;100.00;103640.38;5015553;28;20041;-51
2021/12/16 13:08:10;;;;;;;29.75;17.60;;;;;;;9.14;100.00;103629.84;5014696;28;20038;-50
2021/12/16 13:10:45;;;;;;;33.42;17.90;;;;;;;8.80;100.00;103570.59;5015539;28;20037;-50
2021/12/16 13:16:16;;;;;;;30.35;18.80;;;;;;;8.80;100.00;103567.06;5014652;28;20129;-50
2021/12/16 13:30:04;;;;;;;23.52;16.42;;;;;;;9.22;100.00;103633.53;5013875;28;20049;-58
2021/12/16 13:32:42;;;;;;;25.15;16.45;;;;;;;9.21;100.00;103631.75;5013960;28;20046;-57
2021/12/16 13:37:46;;;;;;;27.08;14.30;;;;;;;8.90;100.00;103562.00;5012691;28;20034;-59
2021/12/16 13:40:14;;;;;;;25.88;14.38;;;;;;;9.27;100.00;103626.59;5014271;28;20037;-56
2021/12/16 13:42:56;;;;;;;23.05;14.55;;;;;;;9.21;100.00;103618.63;5053990;28;20408;-56
2021/12/16 13:45:36;;;;;;;24.63;13.57;;;;;;;8.94;100.00;103568.19;5054448;28;20400;-58
2021/12/16 13:48:19;;;;;;;24.70;12.30;;;;;;;8.88;100.00;103558.47;5054356;28;20027;-56
2021/12/16 14:05:15;;;;;;;24.08;14.30;;;;;;;9.16;100.00;103632.53;5054624;28;20079;-59
2021/12/16 14:07:54;;;;;;;23.77;15.18;;;;;;;9.14;100.00;103643.00;5052959;28;20045;-57
2021/12/16 14:10:55;;;;;;;19.90;15.27;;;;;;;8.86;100.00;103593.44;5052491;28;20064;-58
2021/12/16 14:16:54;;;;;;;26.35;15.57;;;;;;;9.11;100.00;103652.59;5051121;28;20124;-56
2021/12/16 14:35:44;;;;;;;27.90;17.35;;;;;;;8.22;100.00;103552.81;5053486;28;20036;-58
2021/12/16 14:38:38;;;;;;;23.90;15.25;;;;;;;8.50;100.00;103609.38;5053281;28;20415;-58
2021/12/16 14:41:39;;;;;;;28.67;16.85;;;;;;;8.65;100.00;103643.81;5052850;28;20053;-56
2021/12/16 14:47:01;;;;;;;29.17;16.88;;;;;;;8.54;100.00;103628.72;5056828;28;20040;-58
2021/12/16 14:49:30;;;;;;;29.10;16.67;;;;;;;8.54;100.00;103649.72;5056296;28;20036;-55
2021/12/16 14:51:58;;;;;;;28.58;17.67;;;;;;;8.63;100.00;103676.16;5072513;28;20284;-56
2021/12/16 14:54:24;;;;;;;24.90;16.35;;;;;;;8.19;100.00;103602.59;5073127;28;20032;-57
2021/12/16 14:56:49;;;;;;;29.65;16.80;;;;;;;8.24;100.00;103615.78;5055142;28;20032;-56
2021/12/16 14:59:18;;;;;;;29.35;17.17;;;;;;;8.53;100.00;103682.06;5054732;28;20044;-57
2021/12/16 15:01:48;;;;;;;28.33;17.55;;;;;;;8.47;100.00;103686.31;5073036;28;20060;-57
2021/12/16 15:04:16;;;;;;;28.98;17.65;;;;;;;8.34;100.00;103671.19;5073161;28;20036;-55
2021/12/16 15:06:49;;;;;;;27.55;17.48;;;;;;;8.27;100.00;103669.28;5072795;28;20435;-56